Data for 12/01/2014

Time Sea-Level Adjusted Pressure Absolute Pressure Temperature Relative Humidity Dew Point   
(mb) (inHg) (mb) (inHg) (C) (F) (%) (C) (F)
00:05 1022 30.18 851 25.13 -18 -0.4 79 -20.8 -5.4
00:10 1022 30.18 851 25.13 -17.8 0 79 -20.6 -5
00:15 1022 30.18 851 25.13 -17.5 0.5 79 -20.4 -4.7
00:20 1022 30.18 851 25.13 -17.3 0.8 76 -20.6 -5
00:25 1021 30.15 851 25.13 -17.6 0.4 82 -20 -4
00:30 1021 30.15 851 25.13 -17.9 -0.1 83 -20.1 -4.2
00:35 1021 30.15 851 25.13 -18.3 -0.9 86 -20.1 -4.2
00:40 1021 30.15 851 25.13 -17.8 -0.1 86 -19.6 -3.3
00:45 1021 30.15 851 25.13 -17.3 0.8 84 -19.4 -3
00:50 1021 30.15 850 25.1 -17 1.3 81 -19.5 -3.1
00:55 1021 30.15 850 25.1 -17.1 1.2 80 -19.8 -3.6
01:00 1021 30.15 850 25.1 -17.2 1.1 81 -19.7 -3.5
01:05 1021 30.15 850 25.1 -17.1 1.3 80 -19.7 -3.5
01:10 1021 30.15 850 25.1 -16.9 1.5 80 -19.6 -3.2
01:15 1021 30.15 850 25.1 -16.7 1.9 82 -19.2 -2.6
01:20 1021 30.15 850 25.1 -16.6 2.2 81 -19.2 -2.5
01:25 1021 30.15 850 25.1 -16.4 2.5 79 -19.2 -2.6
01:30 1021 30.15 850 25.1 -16.1 3 78 -19.1 -2.4
01:35 1021 30.15 850 25.1 -16 3.3 78 -19 -2.2
01:40 1021 30.15 850 25.1 -15.9 3.3 78 -18.9 -2.1
01:45 1021 30.15 850 25.1 -16 3.2 78 -19 -2.1
01:50 1021 30.15 850 25.1 -15.9 3.3 78 -19 -2.1
01:55 1021 30.15 850 25.1 -15.9 3.3 79 -18.8 -1.9
02:00 1021 30.15 850 25.1 -15.8 3.6 79 -18.7 -1.7
02:05 1021 30.15 850 25.1 -15.7 3.8 78 -18.8 -1.8
02:10 1021 30.15 850 25.1 -15.8 3.6 77 -18.9 -2
02:15 1021 30.15 850 25.1 -16.3 2.7 75 -19.7 -3.5
02:20 1021 30.15 850 25.1 -17.2 1 77 -20.4 -4.7
02:25 1021 30.15 850 25.1 -18 -0.3 78 -20.9 -5.6
02:30 1021 30.15 850 25.1 -18.4 -1.2 79 -21.3 -6.3
02:35 1021 30.15 850 25.1 -18.7 -1.7 80 -21.4 -6.6
02:40 1020 30.12 850 25.1 -18.9 -2.1 79 -21.7 -7
02:45 1020 30.12 850 25.1 -19.1 -2.5 80 -21.7 -7.1
02:50 1020 30.12 850 25.1 -19.3 -2.7 82 -21.6 -6.9
02:55 1020 30.12 849 25.07 -19.5 -3.1 83 -21.6 -7
03:00 1020 30.12 849 25.07 -19.8 -3.6 84 -21.9 -7.3
03:05 1020 30.12 849 25.07 -19.6 -3.2 87 -21.2 -6.1
03:10 1020 30.12 849 25.07 -19.1 -2.4 87 -20.8 -5.4
03:15 1020 30.12 849 25.07 -19 -2.2 87 -20.6 -5.1
03:20 1020 30.12 849 25.07 -18.5 -1.3 88 -20 -4
03:25 1020 30.12 849 25.07 -18.2 -0.7 87 -19.9 -3.8
03:30 1020 30.12 849 25.07 -18 -0.4 83 -20.2 -4.3
03:35 1020 30.12 849 25.07 -18 -0.4 82 -20.3 -4.5
03:40 1020 30.12 849 25.07 -18 -0.4 82 -20.4 -4.7
03:45 1020 30.12 849 25.07 -18.2 -0.8 83 -20.5 -4.9
03:50 1020 30.12 849 25.07 -18.2 -0.8 82 -20.6 -5.1
03:55 1020 30.12 849 25.07 -18.3 -0.9 81 -20.8 -5.4
04:00 1020 30.12 849 25.07 -18.3 -1 84 -20.4 -4.7
04:05 1020 30.12 849 25.07 -18.2 -0.8 85 -20.2 -4.3
04:10 1020 30.12 849 25.07 -18.3 -0.9 82 -20.7 -5.2
04:15 1020 30.12 849 25.07 -19 -2.3 86 -20.9 -5.5
04:20 1020 30.12 849 25.07 -19.3 -2.8 85 -21.2 -6.2
04:25 1020 30.12 849 25.07 -19.3 -2.8 88 -20.8 -5.5
04:30 1020 30.12 849 25.07 -18.9 -2 87 -20.5 -4.9
04:35 1019 30.09 849 25.07 -18.7 -1.6 89 -20.1 -4.2
04:40 1019 30.09 849 25.07 -18.1 -0.7 87 -19.8 -3.6
04:45 1019 30.09 849 25.07 -18.1 -0.5 87 -19.8 -3.6
04:50 1019 30.09 848 25.04 -17.8 -0 88 -19.3 -2.7
04:55 1019 30.09 848 25.04 -17.3 0.9 88 -18.9 -1.9
05:00 1019 30.09 848 25.04 -16.9 1.6 88 -18.5 -1.3
05:05 1019 30.09 848 25.04 -16.6 2.1 85 -18.5 -1.4
05:10 1019 30.09 848 25.04 -16.7 1.9 83 -18.9 -2
05:15 1019 30.09 848 25.04 -16.9 1.6 83 -19.1 -2.3
05:20 1019 30.09 848 25.04 -17 1.4 82 -19.4 -3
05:25 1019 30.09 848 25.04 -17.3 0.9 82 -19.7 -3.4
05:30 1019 30.09 848 25.04 -17.6 0.3 81 -20.1 -4.2
05:35 1019 30.09 848 25.04 -18.2 -0.8 83 -20.5 -4.8
05:40 1019 30.09 848 25.04 -18.3 -1 84 -20.4 -4.7
05:45 1019 30.09 848 25.04 -17.9 -0.3 85 -19.8 -3.7
05:50 1019 30.09 848 25.04 -17.8 0 83 -20.1 -4.1
05:55 1019 30.09 848 25.04 -18 -0.3 83 -20.2 -4.4
06:00 1019 30.09 848 25.04 -18.5 -1.3 82 -20.8 -5.5
06:05 1019 30.09 848 25.04 -18.9 -2 83 -21.1 -5.9
06:10 1019 30.09 848 25.04 -18.9 -2 87 -20.5 -4.9
06:15 1019 30.09 848 25.04 -18.5 -1.2 86 -20.2 -4.4
06:20 1019 30.09 848 25.04 -18.3 -0.9 89 -19.7 -3.5
06:25 1019 30.09 848 25.04 -18.1 -0.5 88 -19.6 -3.3
06:30 1019 30.09 848 25.04 -17.9 -0.2 88 -19.4 -2.9
06:35 1018 30.06 848 25.04 -17.5 0.5 87 -19.3 -2.7
06:40 1018 30.06 848 25.04 -17.6 0.3 87 -19.3 -2.7
06:45 1018 30.06 847 25.01 -17.5 0.4 85 -19.5 -3.2
06:50 1018 30.06 847 25.01 -17.7 0.2 84 -19.7 -3.4
06:55 1018 30.06 847 25.01 -17.5 0.5 84 -19.5 -3.2
07:00 1018 30.06 848 25.04 -17.4 0.6 85 -19.4 -2.9
07:05 1018 30.06 848 25.04 -17.2 1 85 -19.2 -2.5
07:10 1018 30.06 848 25.04 -17.1 1.3 84 -19.1 -2.4
07:15 1019 30.09 848 25.04 -17 1.3 83 -19.3 -2.7
07:20 1019 30.09 848 25.04 -17.3 0.8 84 -19.4 -2.9
07:25 1019 30.09 848 25.04 -17.4 0.6 84 -19.6 -3.2
07:30 1019 30.09 848 25.04 -17.4 0.6 84 -19.6 -3.3
07:35 1019 30.09 848 25.04 -17.5 0.5 84 -19.6 -3.2
07:40 1019 30.09 848 25.04 -17.8 -0 79 -20.6 -5.2
07:45 1019 30.09 848 25.04 -18.8 -1.9 81 -21.3 -6.4
07:50 1019 30.09 848 25.04 -19 -2.2 86 -20.8 -5.4
07:55 1019 30.09 848 25.04 -18.4 -1.2 87 -20.1 -4.2
08:00 1019 30.09 848 25.04 -18.3 -1 85 -20.3 -4.5
08:05 1019 30.09 848 25.04 -18.5 -1.4 84 -20.6 -5.1
08:10 1019 30.09 848 25.04 -18.5 -1.3 85 -20.4 -4.7
08:15 1018 30.06 848 25.04 -18.1 -0.6 86 -19.9 -3.8
08:20 1018 30.06 848 25.04 -18 -0.4 85 -19.9 -3.9
08:25 1018 30.06 848 25.04 -18.6 -1.5 83 -20.8 -5.4
08:30 1018 30.06 848 25.04 -19.1 -2.4 86 -20.9 -5.6
08:35 1018 30.06 847 25.01 -18.6 -1.5 87 -20.4 -4.6
08:40 1018 30.06 847 25.01 -18 -0.4 87 -19.6 -3.4
08:45 1018 30.06 847 25.01 -17.8 0.1 83 -20 -3.9
08:50 1018 30.06 847 25.01 -18.2 -0.7 86 -20 -3.9
08:55 1018 30.06 847 25.01 -17.5 0.5 84 -19.5 -3.1
09:00 1018 30.06 847 25.01 -17.6 0.3 84 -19.7 -3.4
09:05 1018 30.06 847 25.01 -17.6 0.4 87 -19.3 -2.7
09:10 1018 30.06 847 25.01 -17.1 1.3 85 -19.1 -2.3
09:15 1018 30.06 847 25.01 -16.7 1.9 86 -18.6 -1.5
09:20 1018 30.06 847 25.01 -16 3.3 84 -18 -0.5
09:25 1018 30.06 847 25.01 -15.2 4.6 83 -17.4 0.6
09:30 1018 30.06 847 25.01 -14.8 5.4 84 -16.9 1.6
09:35 1018 30.06 848 25.04 -14.6 5.7 80 -17.3 0.9
09:40 1018 30.06 848 25.04 -14.8 5.3 80 -17.5 0.4
09:45 1019 30.09 848 25.04 -15 5 80 -17.7 0.1
09:50 1019 30.09 848 25.04 -15.1 4.8 78 -18.1 -0.6
09:55 1019 30.09 848 25.04 -16 3.3 80 -18.7 -1.7
10:00 1019 30.09 848 25.04 -16.2 2.9 83 -18.4 -1.2
10:05 1019 30.09 848 25.04 -15.5 4 83 -17.7 0.1
10:10 1019 30.09 848 25.04 -15 5 80 -17.7 0.2
10:15 1019 30.09 848 25.04 -15.1 4.8 81 -17.7 0.1
10:20 1019 30.09 848 25.04 -15.2 4.7 78 -18.1 -0.7
10:25 1019 30.09 848 25.04 -15.3 4.5 80 -18 -0.5
10:30 1019 30.09 848 25.04 -14.9 5.2 80 -17.6 0.3
10:35 1019 30.09 848 25.04 -14.7 5.6 78 -17.7 0.2
10:40 1019 30.09 848 25.04 -14.6 5.7 80 -17.4 0.7
10:45 1019 30.09 848 25.04 -14.6 5.8 80 -17.4 0.8
10:50 1019 30.09 848 25.04 -14.5 5.9 80 -17.3 0.9
10:55 1019 30.09 848 25.04 -14.3 6.3 78 -17.3 0.9
11:00 1019 30.09 848 25.04 -14.1 6.6 77 -17.2 1
11:05 1019 30.09 848 25.04 -14.1 6.6 76 -17.4 0.6
11:10 1019 30.09 848 25.04 -14.1 6.6 77 -17.3 0.8
11:15 1019 30.09 848 25.04 -13.9 7 77 -17.2 1.1
11:20 1019 30.09 848 25.04 -13.9 7 78 -17 1.4
11:25 1019 30.09 848 25.04 -13.6 7.6 78 -16.7 2
11:30 1018 30.06 848 25.04 -13.2 8.2 77 -16.5 2.4
11:35 1018 30.06 848 25.04 -13.1 8.4 76 -16.4 2.4
11:40 1018 30.06 847 25.01 -13 8.7 77 -16.2 2.8
11:45 1018 30.06 847 25.01 -12.5 9.6 76 -15.9 3.4
11:50 1018 30.06 847 25.01 -11.9 10.6 74 -15.6 3.8
11:55 1018 30.06 847 25.01 -11.5 11.4 73 -15.3 4.4
12:00 1018 30.06 847 25.01 -10.9 12.4 73 -14.8 5.3
12:05 1018 30.06 847 25.01 -10.2 13.7 70 -14.7 5.6
12:10 1017 30.03 847 25.01 -9.7 14.5 69 -14.3 6.2
12:15 1017 30.03 847 25.01 -9.4 15.1 69 -14 6.8
12:20 1017 30.03 847 25.01 -8.6 16.6 66 -13.8 7.1
12:25 1017 30.03 846 24.98 -8.2 17.3 69 -12.9 8.8
12:30 1017 30.03 846 24.98 -8.2 17.3 66 -13.4 7.9
12:35 1017 30.03 846 24.98 -7.6 18.4 65 -13 8.6
12:40 1017 30.03 846 24.98 -7 19.3 64 -12.8 8.9
12:45 1017 30.03 846 24.98 -6.6 20.1 62 -12.7 9.2
12:50 1017 30.03 846 24.98 -6.3 20.6 63 -12.3 9.8
12:55 1017 30.03 846 24.98 -6.1 21 63 -12.2 10.1
13:00 1017 30.03 846 24.98 -5.8 21.6 60 -12.4 9.7
13:05 1016 30 846 24.98 -5.9 21.3 64 -11.7 10.9
13:10 1016 30 846 24.98 -5.9 21.3 63 -11.9 10.7
13:15 1016 30 845 24.95 -6 21.2 64 -11.8 10.8
13:20 1016 30 845 24.95 -5.9 21.4 64 -11.6 11.1
13:25 1016 30 845 24.95 -5.6 21.9 63 -11.6 11
13:30 1016 30 845 24.95 -5.2 22.7 62 -11.4 11.5
13:35 1016 30 845 24.95 -5.2 22.6 64 -11 12.1
13:40 1016 30 845 24.95 -5.6 21.9 64 -11.4 11.5
13:45 1016 30 845 24.95 -7.4 18.7 65 -12.9 8.8
13:50 1016 30 845 24.95 -8.8 16.2 66 -14 6.8
13:55 1016 30 845 24.95 -10.2 13.6 72 -14.4 6
14:00 1016 30 845 24.95 -10.4 13.4 71 -14.7 5.6
14:05 1016 30 845 24.95 -10.6 13 70 -15.1 4.8
14:10 1016 30 845 24.95 -10.7 12.7 71 -15 5
14:15 1016 30 845 24.95 -10.8 12.5 71 -15.2 4.7
14:20 1016 30 845 24.95 -10.8 12.5 71 -15.1 4.7
14:25 1016 30 845 24.95 -10.9 12.3 70 -15.3 4.4
14:30 1016 30 845 24.95 -10.8 12.5 69 -15.4 4.2
14:35 1016 30 845 24.95 -10.9 12.5 71 -15.1 4.7
14:40 1016 30 845 24.95 -10.8 12.5 72 -14.9 5.2
14:45 1016 30 845 24.95 -10 14 70 -14.5 5.8
14:50 1016 30 845 24.95 -10.3 13.4 71 -14.6 5.7
14:55 1016 30 845 24.95 -10.6 13 73 -14.6 5.7
15:00 1016 30 845 24.95 -10.4 13.2 71 -14.7 5.6
15:05 1016 30 845 24.95 -10.2 13.6 71 -14.4 6
15:10 1016 30 845 24.95 -9.7 14.5 72 -13.8 7.1
15:15 1016 30 845 24.95 -9.6 14.7 71 -14 6.9
15:20 1015 29.97 845 24.95 -9.6 14.6 74 -13.5 7.6
15:25 1015 29.97 845 24.95 -9.5 15 72 -13.6 7.5
15:30 1015 29.97 844 24.92 -9.2 15.4 72 -13.4 7.8
15:35 1015 29.97 844 24.92 -8.9 15.9 72 -13.1 8.3
15:40 1015 29.97 844 24.92 -8.7 16.3 72 -12.9 8.8
15:45 1015 29.97 844 24.92 -8.4 16.8 72 -12.7 9.2
15:50 1015 29.97 844 24.92 -8.3 17 73 -12.3 9.9
15:55 1015 29.97 844 24.92 -8.2 17.2 74 -12.1 10.2
16:00 1015 29.97 844 24.92 -7.6 18.3 71 -12 10.4
16:05 1015 29.97 844 24.92 -6.9 19.5 70 -11.6 11.1
16:10 1015 29.97 844 24.92 -6.5 20.3 69 -11.4 11.6
16:15 1015 29.97 844 24.92 -6.1 21.1 59 -13 8.7
16:20 1015 29.97 844 24.92 -4.4 24.1 56 -11.8 10.8
16:25 1015 29.97 844 24.92 -3.7 25.3 57 -11 12.2
16:30 1015 29.97 844 24.92 -3.9 25.1 57 -11.2 11.9
16:35 1015 29.97 844 24.92 -3.9 25 56 -11.4 11.4
16:40 1015 29.97 844 24.92 -4 24.8 57 -11.2 11.8
16:45 1015 29.97 844 24.92 -4.1 24.5 51 -12.9 8.7
16:50 1015 29.97 844 24.92 -3.3 26 52 -11.9 10.5
16:55 1015 29.97 844 24.92 -3.3 26 55 -11.1 12
17:00 1014 29.94 844 24.92 -3.6 25.6 54 -11.5 11.3
17:05 1014 29.94 844 24.92 -3.7 25.4 63 -9.7 14.5
17:10 1014 29.94 844 24.92 -4.1 24.6 66 -9.5 15
17:15 1014 29.94 844 24.92 -4.6 23.7 62 -10.8 12.6
17:20 1014 29.94 844 24.92 -4 24.8 59 -11 12.2
17:25 1014 29.94 844 24.92 -3.7 25.4 60 -10.4 13.3
17:30 1014 29.94 843 24.89 -3.5 25.8 57 -10.8 12.5
17:35 1014 29.94 843 24.89 -3.2 26.2 59 -10.1 13.9
17:40 1014 29.94 843 24.89 -3.5 25.8 59 -10.4 13.3
17:45 1014 29.94 843 24.89 -3.3 26.1 56 -10.8 12.5
17:50 1014 29.94 843 24.89 -3 26.6 55 -10.8 12.5
17:55 1014 29.94 843 24.89 -2.6 27.4 56 -10.2 13.7
18:00 1014 29.94 843 24.89 -2.7 27.2 57 -10 13.9
18:05 1014 29.94 843 24.89 -3 26.7 63 -9.2 15.5
18:10 1014 29.94 843 24.89 -2.8 27 57 -10.1 13.8
18:15 1014 29.94 843 24.89 -2.5 27.5 61 -9 15.9
18:20 1014 29.94 843 24.89 -2.5 27.6 59 -9.5 14.9
18:25 1014 29.94 843 24.89 -2.5 27.5 63 -8.6 16.6
18:30 1014 29.94 843 24.89 -2.8 26.9 65 -8.5 16.8
18:35 1014 29.94 843 24.89 -2.8 27 64 -8.6 16.5
18:40 1014 29.94 843 24.89 -2.6 27.3 67 -7.8 17.9
18:45 1014 29.94 843 24.89 -2.6 27.4 63 -8.7 16.4
18:50 1014 29.94 843 24.89 -2.5 27.6 62 -8.7 16.3
18:55 1014 29.94 843 24.89 -2.4 27.8 65 -8.1 17.4
19:00 1014 29.94 843 24.89 -2.5 27.6 66 -8 17.5
19:05 1014 29.94 843 24.89 -2.4 27.6 67 -7.7 18.1
19:10 1014 29.94 843 24.89 -2.3 27.9 63 -8.3 17
19:15 1014 29.94 843 24.89 -2 28.5 64 -8 17.6
19:20 1014 29.94 843 24.89 -2 28.4 66 -7.5 18.5
19:25 1014 29.94 843 24.89 -2.2 28 68 -7.4 18.7
19:30 1014 29.94 843 24.89 -2.3 27.8 69 -7.2 19.1
19:35 1014 29.94 843 24.89 -2.6 27.4 71 -7.2 19.1
19:40 1014 29.94 843 24.89 -2.6 27.4 72 -7 19.4
19:45 1014 29.94 843 24.89 -2.7 27.1 72 -7.1 19.3
19:50 1014 29.94 843 24.89 -3.1 26.4 71 -7.7 18.2
19:55 1014 29.94 843 24.89 -3.7 25.3 72 -8.1 17.4
20:00 1014 29.94 843 24.89 -4.1 24.6 71 -8.6 16.5
20:05 1014 29.94 843 24.89 -4.2 24.5 70 -8.9 16
20:10 1014 29.94 843 24.89 -4.2 24.5 67 -9.4 15
20:15 1014 29.94 843 24.89 -4.1 24.6 64 -10 14
20:20 1014 29.94 843 24.89 -4 24.7 62 -10.3 13.5
20:25 1014 29.94 843 24.89 -3.9 24.9 62 -10.2 13.6
20:30 1014 29.94 843 24.89 -4 24.8 62 -10.3 13.5
20:35 1014 29.94 843 24.89 -4.2 24.5 63 -10.2 13.6
20:40 1014 29.94 843 24.89 -4.2 24.4 61 -10.7 12.8
20:45 1014 29.94 843 24.89 -4 24.8 60 -10.7 12.7
20:50 1014 29.94 843 24.89 -3.8 25.1 60 -10.5 13
20:55 1014 29.94 843 24.89 -3.5 25.6 60 -10.1 13.7
21:00 1014 29.94 843 24.89 -3.5 25.6 60 -10.2 13.7
21:05 1014 29.94 843 24.89 -3.4 25.8 60 -10.1 13.8
21:10 1014 29.94 843 24.89 -3.5 25.7 59 -10.3 13.4
21:15 1014 29.94 843 24.89 -3.9 25 62 -10.2 13.6
21:20 1014 29.94 843 24.89 -4.3 24.3 61 -10.8 12.5
21:25 1014 29.94 843 24.89 -4.3 24.2 63 -10.3 13.4
21:30 1014 29.94 843 24.89 -4.2 24.4 63 -10.2 13.7
21:35 1014 29.94 843 24.89 -3.1 26.5 63 -9.2 15.5
21:40 1014 29.94 843 24.89 -2.3 27.9 62 -8.6 16.6
21:45 1014 29.94 843 24.89 -2.2 28.1 61 -8.7 16.3
21:50 1014 29.94 843 24.89 -2.9 26.8 65 -8.7 16.4
21:55 1014 29.94 843 24.89 -3.4 25.9 63 -9.4 15
22:00 1013 29.91 843 24.89 -2.8 26.9 60 -9.6 14.7
22:05 1013 29.91 843 24.89 -2.3 27.8 61 -9 15.9
22:10 1013 29.91 843 24.89 -2.3 27.9 62 -8.5 16.6
22:15 1013 29.91 843 24.89 -2.1 28.1 60 -8.9 16
22:20 1013 29.91 843 24.89 -2 28.4 61 -8.7 16.4
22:25 1013 29.91 843 24.89 -1.9 28.6 62 -8.3 17.1
22:30 1013 29.91 843 24.89 -1.7 28.9 62 -8.1 17.5
22:35 1013 29.91 843 24.89 -1.8 28.8 62 -8 17.6
22:40 1013 29.91 843 24.89 -1.5 29.3 63 -7.8 18
22:45 1013 29.91 843 24.89 -1.1 30 62 -7.4 18.7
22:50 1013 29.91 843 24.89 -1.1 30 62 -7.4 18.6
22:55 1013 29.91 843 24.89 -1.1 30.1 64 -7 19.4
23:00 1014 29.94 843 24.89 -0.6 31 61 -7.2 19
23:05 1014 29.94 843 24.89 -0.9 30.5 62 -7.2 19.1
23:10 1014 29.94 843 24.89 -1.5 29.2 65 -7.2 19
23:15 1013 29.91 843 24.89 -1.5 29.2 65 -7.3 18.9
23:20 1014 29.94 843 24.89 -1.2 29.9 64 -7.1 19.2
23:25 1013 29.91 843 24.89 -1.1 30 64 -7 19.4
23:30 1014 29.94 843 24.89 -1.1 30 65 -6.9 19.6
23:35 1014 29.94 843 24.89 -1.4 29.5 66 -6.9 19.6
23:40 1014 29.94 843 24.89 -1.4 29.5 67 -6.8 19.8
23:45 1014 29.94 843 24.89 -1.4 29.5 68 -6.6 20.1
23:50 1014 29.94 843 24.89 -1.5 29.4 68 -6.6 20.2
23:55 1014 29.94 843 24.89 -1.6 29.2 69 -6.6 20.2
24:00 1014 29.94 843 24.89 -1.6 29.1 68 -6.7 20